Latest Coastal Weather Observations for Lihou Reef Lighthouse

IDQ60701

Issued at 10:35 pm EST Monday 24 November 2014 (issued every 10 minutes, with the page automatically refreshed every 10 minutes)

About coastal observations | Map of coastal stations | Coastal observations for QLD | Marine services | Other Formats
Station Details ID: 200880 Name: LIHOU REEF LIGHTHOUSE Lat: -17.13 Lon: 152.15 Height: 0.0 m
Data from the previous 72 hours. | See also: Recent months for locations in Queensland
Date/Time
EST
Temp

°C
Wind Pressure Rain
since 9am
mm
Weather Cloud Vis
km
Sea
Height
m
Swell
Dir
 
Speed
knots
Gust
knots
hPa Trend Height
m
Period
s
Dir
24/10:30pm 26.6 ESE 13 15 1012.4 - - - - - - - - -
24/10:00pm 26.6 ESE 13 15 1012.5 - - - - - - - - -
24/09:30pm 26.7 ESE 13 16 1012.4 - - - - - - - - -
24/09:00pm 26.8 ESE 13 15 1012.3 - - - - - - - - -
24/08:30pm 26.9 ESE 14 17 1012.0 - - - - - - - - -
24/08:00pm 26.9 ESE 14 16 1011.9 - - - - - - - - -
24/07:30pm 26.9 ESE 14 17 1011.6 - - - - - - - - -
24/07:00pm 26.8 ESE 14 16 1011.3 - - - - - - - - -
24/06:30pm 26.8 ESE 15 18 1011.2 - - - - - - - - -
24/06:00pm 26.8 ESE 14 16 1011.0 - - - - - - - - -
24/05:30pm 27.0 ESE 14 16 1010.8 - - - - - - - - -
24/05:00pm 26.9 E 14 17 1010.6 - - - - - - - - -
24/04:30pm 27.2 ESE 14 16 1010.4 - - - - - - - - -
24/04:00pm 27.4 ESE 15 17 1010.4 - - - - - - - - -
24/03:30pm 27.3 ESE 15 17 1010.4 - - - - - - - - -
24/03:00pm 27.3 ESE 14 17 1010.6 - - - - - - - - -
24/02:30pm 27.1 ESE 13 16 1010.9 - - - - - - - - -
24/02:00pm 27.1 ESE 15 17 1011.1 - - - - - - - - -
24/01:30pm 27.1 ESE 15 17 1011.4 - - - - - - - - -
24/01:00pm 27.1 ESE 14 16 1011.8 - - - - - - - - -
24/12:30pm 26.9 ESE 15 18 1012.1 - - - - - - - - -
24/12:00pm 26.8 ESE 16 18 1012.3 - - - - - - - - -
24/11:30am 26.9 ESE 16 18 1012.6 - - - - - - - - -
24/11:00am 26.9 ESE 16 19 1012.8 - - - - - - - - -
24/10:30am 27.0 E 16 18 1013.3 - - - - - - - - -
24/10:00am 27.0 E 14 17 1013.7 - - - - - - - - -
24/09:30am 27.0 E 14 17 1013.8 - - - - - - - - -
24/09:00am 26.9 E 15 17 1013.9 - - - - - - - - -
24/08:30am 26.9 E 16 18 1014.0 - - - - - - - - -
24/08:00am 26.9 ESE 16 18 1013.8 - - - - - - - - -
24/07:30am 26.6 ESE 16 19 1013.6 - - - - - - - - -
24/07:00am 26.7 ESE 17 19 1013.3 - - - - - - - - -
24/06:30am 26.5 ESE 17 20 1013.3 - - - - - - - - -
24/06:00am 26.6 ESE 15 19 1012.9 - - - - - - - - -
24/05:30am 26.3 ESE 14 17 1012.8 - - - - - - - - -
24/05:00am 26.3 ESE 15 17 1012.5 - - - - - - - - -
24/04:30am 26.3 ESE 13 15 1012.3 - - - - - - - - -
24/04:00am 26.3 ESE 13 16 1012.3 - - - - - - - - -
24/03:30am 26.3 E 12 14 1012.3 - - - - - - - - -
24/03:00am 26.3 E 14 16 1012.3 - - - - - - - - -
24/02:30am 26.3 E 14 15 1012.4 - - - - - - - - -
24/02:00am 25.9 E 14 17 1012.5 - - - - - - - - -
24/01:30am 26.3 E 16 19 1012.9 - - - - - - - - -
24/01:00am 26.4 E 15 17 1013.1 - - - - - - - - -
24/12:30am 26.6 E 15 17 1013.3 - - - - - - - - -
24/12:00am 26.6 E 14 17 1013.6 - - - - - - - - -
 
Date/Time
EST
Temp

°C
Wind Pressure Rain
since 9am
mm
Weather Cloud Vis
km
Sea
Height
m
Swell
Dir
 
Speed
knots
Gust
knots
hPa Trend Height
m
Period
s
Dir
23/11:30pm 26.5 E 12 14 1014.1 - - - - - - - - -
23/11:00pm 26.1 E 13 15 1014.3 - - - - - - - - -
23/10:30pm 25.3 E 13 16 1014.5 - - - - - - - - -
23/10:00pm 25.3 E 14 18 1014.4 - - - - - - - - -
23/09:30pm 25.6 E 9 12 1014.3 - - - - - - - - -
23/09:06pm 24.4 ENE 20 24 1014.1 - - - - - - - - -
23/09:00pm 25.5 ESE 15 18 1014.2 - - - - - - - - -
23/08:30pm 25.2 SE 13 18 1014.0 - - - - - - - - -
23/08:00pm 25.4 SE 16 20 1013.8 - - - - - - - - -
23/07:30pm 26.7 ESE 12 16 1013.6 - - - - - - - - -
23/07:00pm 26.4 ESE 13 15 1013.1 - - - - - - - - -
23/06:30pm 26.8 ESE 14 16 1012.9 - - - - - - - - -
23/06:00pm 26.8 ESE 13 15 1012.8 - - - - - - - - -
23/05:30pm 27.2 ESE 14 16 1012.6 - - - - - - - - -
23/05:00pm 27.3 ESE 12 14 1012.4 - - - - - - - - -
23/04:30pm 27.3 ESE 14 15 1012.1 - - - - - - - - -
23/04:00pm 27.6 E 11 13 1012.1 - - - - - - - - -
23/03:30pm 27.5 E 12 14 1012.1 - - - - - - - - -
23/03:00pm 27.4 E 11 13 1012.2 - - - - - - - - -
23/02:30pm 27.5 E 10 12 1012.4 - - - - - - - - -
23/02:00pm 27.5 ESE 10 12 1012.7 - - - - - - - - -
23/01:30pm 27.3 E 10 12 1013.0 - - - - - - - - -
23/01:00pm 27.4 E 11 13 1013.1 - - - - - - - - -
23/12:30pm 27.1 E 11 13 1013.4 - - - - - - - - -
23/12:00pm 27.1 E 11 12 1013.8 - - - - - - - - -
23/11:30am 27.1 E 10 13 1013.9 - - - - - - - - -
23/11:00am 27.0 E 11 13 1014.1 - - - - - - - - -
23/10:30am 27.1 E 11 14 1014.3 - - - - - - - - -
23/10:00am 26.4 E 11 15 1014.4 - - - - - - - - -
23/09:30am 27.0 E 11 13 1014.5 - - - - - - - - -
23/09:00am 27.1 E 11 13 1014.5 - - - - - - - - -
23/08:30am 27.1 E 11 14 1014.3 - - - - - - - - -
23/08:00am 27.0 E 11 13 1014.0 - - - - - - - - -
23/07:30am 26.9 E 11 13 1013.9 - - - - - - - - -
23/07:00am 26.8 E 12 14 1013.6 - - - - - - - - -
23/06:30am 26.7 E 13 15 1013.5 - - - - - - - - -
23/06:00am 26.4 E 13 15 1013.0 - - - - - - - - -
23/05:30am 26.3 E 10 12 1012.7 - - - - - - - - -
23/05:00am 26.4 E 12 14 1012.2 - - - - - - - - -
23/04:30am 26.4 E 12 14 1012.0 - - - - - - - - -
23/04:00am 26.4 E 13 15 1011.7 - - - - - - - - -
23/03:30am 26.3 E 10 12 1011.6 - - - - - - - - -
23/03:00am 26.2 ENE 9 11 1011.7 - - - - - - - - -
23/02:30am 26.2 E 11 13 1011.7 - - - - - - - - -
23/02:00am 26.3 E 10 12 1011.9 - - - - - - - - -
23/01:30am 26.4 E 12 14 1012.1 - - - - - - - - -
23/01:00am 26.5 E 12 13 1012.4 - - - - - - - - -
23/12:30am 26.7 E 10 12 1012.9 - - - - - - - - -
23/12:00am 26.6 E 10 13 1013.2 - - - - - - - - -
 
Date/Time
EST
Temp

°C
Wind Pressure Rain
since 9am
mm
Weather Cloud Vis
km
Sea
Height
m
Swell
Dir
 
Speed
knots
Gust
knots
hPa Trend Height
m
Period
s
Dir
22/11:30pm 26.7 E 11 13 1013.5 - - - - - - - - -
22/11:00pm 26.8 E 11 12 1013.9 - - - - - - - - -
22/10:30pm 26.7 E 10 12 1014.0 - - - - - - - - -
22/10:00pm 26.8 E 10 12 1014.1 - - - - - - - - -
22/09:30pm 26.8 E 10 12 1014.0 - - - - - - - - -
22/09:00pm 26.8 ESE 10 12 1013.7 - - - - - - - - -
22/08:30pm 26.8 ESE 9 11 1013.7 - - - - - - - - -
22/08:00pm 26.9 ESE 10 11 1013.6 - - - - - - - - -
22/07:30pm 26.9 ESE 11 12 1013.2 - - - - - - - - -
22/07:00pm 26.8 ESE 9 11 1013.0 - - - - - - - - -
22/06:30pm 26.9 ESE 8 9 1012.8 - - - - - - - - -
22/06:00pm 26.9 SE 9 10 1012.5 - - - - - - - - -
22/05:30pm 27.3 ESE 8 9 1012.3 - - - - - - - - -
22/05:00pm 27.4 ESE 9 10 1012.1 - - - - - - - - -
22/04:30pm 27.3 ESE 8 9 1011.8 - - - - - - - - -
22/04:00pm 27.2 SE 8 10 1011.6 - - - - - - - - -
22/03:30pm 27.0 SE 8 10 1011.6 - - - - - - - - -
22/03:00pm 27.0 SE 8 10 1011.8 - - - - - - - - -
22/02:30pm 27.2 ESE 8 9 1012.0 - - - - - - - - -
22/02:00pm 27.2 ESE 8 10 1012.2 - - - - - - - - -
22/01:30pm 27.1 ESE 8 9 1012.5 - - - - - - - - -
22/01:00pm 27.1 ESE 8 9 1012.8 - - - - - - - - -
22/12:30pm 27.1 ESE 8 9 1013.0 - - - - - - - - -
22/12:00pm 27.0 ESE 6 8 1013.3 - - - - - - - - -
22/11:30am 27.0 E 8 10 1013.4 - - - - - - - - -
22/11:00am 26.9 E 8 9 1013.6 - - - - - - - - -
22/10:30am 26.9 E 8 10 1014.1 - - - - - - - - -
22/10:00am 26.9 E 7 9 1014.4 - - - - - - - - -
22/09:30am 26.8 E 8 10 1014.5 - - - - - - - - -
22/09:00am 26.9 E 8 9 1014.5 - - - - - - - - -
22/08:30am 26.8 E 8 10 1014.3 - - - - - - - - -
22/08:00am 26.7 E 8 9 1014.3 - - - - - - - - -
22/07:30am 26.6 E 8 9 1014.1 - - - - - - - - -
22/07:00am 26.5 E 9 10 1013.9 - - - - - - - - -
22/06:30am 26.4 E 10 12 1013.5 - - - - - - - - -
22/06:00am 26.3 E 11 12 1013.1 - - - - - - - - -
22/05:30am 26.1 E 11 13 1012.6 - - - - - - - - -
22/05:00am 26.1 E 9 10 1012.4 - - - - - - - - -
22/04:30am 26.2 ENE 9 10 1012.2 - - - - - - - - -
22/04:00am 26.1 E 8 9 1012.2 - - - - - - - - -
22/03:30am 26.0 E 8 10 1012.0 - - - - - - - - -
22/03:00am 26.0 E 9 10 1011.8 - - - - - - - - -
22/02:30am 26.0 E 10 12 1011.7 - - - - - - - - -
22/02:00am 25.9 E 9 11 1011.7 - - - - - - - - -
22/01:30am 26.0 E 9 11 1012.1 - - - - - - - - -
22/01:00am 26.0 E 9 11 1012.4 - - - - - - - - -
22/12:30am 26.1 E 9 10 1013.0 - - - - - - - - -
22/12:00am 26.2 E 10 12 1013.3 - - - - - - - - -
 
Date/Time
EST
Temp

°C
Wind Pressure Rain
since 9am
mm
Weather Cloud Vis
km
Sea
Height
m
Swell
Dir
 
Speed
knots
Gust
knots
hPa Trend Height
m
Period
s
Dir
21/11:30pm 26.3 E 10 12 1013.6 - - - - - - - - -
21/11:00pm 26.4 ENE 11 13 1013.8 - - - - - - - - -

Other Formats:

Comma delimited format used in spreadsheet applications
http://www.bom.gov.au/fwo/IDQ60701/IDQ60701.94293.axf

JavaScript Object Notation format (JSON) in row-major order
http://www.bom.gov.au/fwo/IDQ60701/IDQ60701.94293.json